Etusivu
METAR-TAF:

METAR-TAF

Lentoasemat :

Corvallis, Oregon, Yhdysvallat

Leveyspiiri: 44-30N, Pituuspiiri: 123-17W, korkeus merenpinnasta: 75 m

Tämänhetkinen sää

Tämä raportti tehtiin 36 minuuttia sitten, kello 01.56 UTC
Tuuli 9 kn lounaasta
Lämpötila 13°C
Kosteus 94%
Ilmanpaine 1009 hPa
Näkyvyys: 16.1 km
Muutamia pilviä 2200 ft:n korkeudessa
Hajanaisia pilviä 4900 ft:n korkeudessa

METAR: KCVO 190156Z AUTO 22009KT 10SM FEW022 SCT049 13/12 A2979 RMK AO2 RAB03E15 SLP088 P0000 T01330122

Aika: 18:32 (02:32 UTC)


TAF: puuttuu

Säähavainnot ja -ennusteet yli 4000 lentoasemalta (METAR- ja TAF-raportit).

Käytössä olevat sääasemat on merkitty karttaan keltaisilla ja punaisilla pisteillä.

Aseta hiiri pisteen päälle nähdäksesi sääaseman nimen.

Klikkaa sitten nähdäksesi säähavainnot ja -ennusteet.

Kartan vaihtaminen: klikkaa mustalla rastilla varustettuja vihreitä pisteitä, niin voit zoomata sisään; viivalla varustettua vihreää pistettä, niin voit zoomata ulos tai vihreitä nuolia, niin pääset viereisille kartoille.


METAR-TAF: